createdAt,value
2022-08-17T00:01:52.857Z,21.42
2022-08-17T00:04:20.412Z,21.75
2022-08-17T00:06:49.124Z,20.60
2022-08-17T00:09:18.632Z,22.15
2022-08-17T00:12:41.741Z,21.55
2022-08-17T00:14:35.158Z,22.80
2022-08-17T00:17:03.926Z,22.58
2022-08-17T00:19:32.774Z,23.27
2022-08-17T00:22:34.027Z,23.80
2022-08-17T00:24:50.038Z,22.73
2022-08-17T00:27:17.488Z,23.63
2022-08-17T00:29:45.946Z,25.50
2022-08-17T00:33:12.093Z,25.58
2022-08-17T00:35:08.511Z,23.60
2022-08-17T00:37:35.391Z,24.20
2022-08-17T00:40:02.499Z,23.83
2022-08-17T00:42:31.285Z,22.75
2022-08-17T00:44:59.418Z,24.90
2022-08-17T00:47:26.907Z,24.33
2022-08-17T00:49:54.189Z,22.80
2022-08-17T00:52:25.110Z,23.52
2022-08-17T00:54:54.584Z,23.73
2022-08-17T00:57:30.099Z,23.77
2022-08-17T01:00:03.351Z,24.92
2022-08-17T01:02:42.347Z,22.58
2022-08-17T01:05:23.677Z,20.23
2022-08-17T01:07:53.144Z,21.23
2022-08-17T01:10:58.345Z,21.67
2022-08-17T01:13:14.076Z,22.42
2022-08-17T01:15:46.418Z,22.17
2022-08-17T01:18:14.522Z,22.02
2022-08-17T01:20:48.473Z,23.77
2022-08-17T01:23:20.565Z,24.98
2022-08-17T01:25:54.050Z,24.25
2022-08-17T01:28:53.191Z,25.35
2022-08-17T01:31:09.542Z,25.10
2022-08-17T01:33:37.479Z,24.38
2022-08-17T01:36:06.983Z,22.30
2022-08-17T01:38:38.064Z,22.90
2022-08-17T01:41:12.491Z,22.42
2022-08-17T01:43:51.103Z,22.83
2022-08-17T01:46:27.024Z,22.55
2022-08-17T01:48:55.447Z,21.73
2022-08-17T01:51:22.530Z,22.75
2022-08-17T01:53:57.544Z,23.90
2022-08-17T01:56:26.461Z,22.00
2022-08-17T01:58:53.700Z,23.40
2022-08-17T02:01:24.481Z,22.70
2022-08-17T02:03:59.006Z,24.40
2022-08-17T02:06:45.257Z,21.55
2022-08-17T02:09:23.241Z,24.38
2022-08-17T02:11:50.990Z,22.35
2022-08-17T02:14:18.131Z,22.65
2022-08-17T02:16:45.029Z,23.13
2022-08-17T02:19:15.150Z,25.08
2022-08-17T02:21:46.430Z,24.15
2022-08-17T02:24:59.360Z,23.90
2022-08-17T02:27:10.314Z,23.52
2022-08-17T02:29:37.342Z,23.83
2022-08-17T02:32:05.106Z,22.23
2022-08-17T02:34:32.797Z,21.25
2022-08-17T02:36:59.683Z,24.40
2022-08-17T02:39:26.658Z,24.35
2022-08-17T02:42:01.796Z,24.25
2022-08-17T02:44:35.427Z,24.48
2022-08-17T02:47:06.623Z,23.00
2022-08-17T02:49:33.548Z,22.55
2022-08-17T02:52:03.569Z,24.15
2022-08-17T02:54:40.395Z,22.17
2022-08-17T02:57:09.481Z,24.27
2022-08-17T02:59:36.600Z,25.05
2022-08-17T03:02:05.028Z,24.65
2022-08-17T03:04:34.883Z,26.10
2022-08-17T03:07:03.063Z,23.23
2022-08-17T03:09:30.019Z,23.27
2022-08-17T03:12:12.266Z,24.40
2022-08-17T03:14:41.676Z,24.70
2022-08-17T03:17:10.150Z,23.35
2022-08-17T03:19:42.958Z,23.67
2022-08-17T03:22:35.662Z,25.13
2022-08-17T03:24:58.072Z,23.45
2022-08-17T03:27:24.919Z,25.45
2022-08-17T03:29:51.788Z,22.92
2022-08-17T03:32:20.727Z,24.20
2022-08-17T03:34:47.930Z,23.83
2022-08-17T03:37:14.869Z,22.10
2022-08-17T03:39:41.937Z,25.20
2022-08-17T03:42:31.884Z,22.95
2022-08-17T03:45:00.774Z,23.88
2022-08-17T03:47:46.670Z,23.63
2022-08-17T03:50:20.510Z,23.85
2022-08-17T03:53:09.052Z,23.25
2022-08-17T03:55:55.849Z,25.45
2022-08-17T03:58:22.826Z,23.40
2022-08-17T04:00:51.093Z,22.98
2022-08-17T04:03:18.374Z,23.85
2022-08-17T04:05:45.286Z,24.00
2022-08-17T04:08:12.341Z,22.83
2022-08-17T04:10:44.883Z,22.83
2022-08-17T04:13:12.347Z,24.45
2022-08-17T04:15:39.275Z,24.33
2022-08-17T04:18:07.544Z,24.23
2022-08-17T04:20:35.163Z,24.13
2022-08-17T04:23:17.134Z,25.30
2022-08-17T04:25:48.454Z,23.35
2022-08-17T04:28:16.635Z,21.67
2022-08-17T04:30:45.337Z,21.90
2022-08-17T04:33:24.253Z,23.85
2022-08-17T04:35:54.597Z,22.13
2022-08-17T04:38:24.561Z,22.52
2022-08-17T04:41:11.072Z,21.63
2022-08-17T04:43:39.706Z,21.65
2022-08-17T04:46:10.697Z,21.30
2022-08-17T04:48:40.571Z,19.70
2022-08-17T04:51:13.622Z,20.90
2022-08-17T04:53:42.855Z,21.20
2022-08-17T04:56:11.528Z,18.17
2022-08-17T04:58:38.961Z,17.98
2022-08-17T05:01:07.317Z,15.32
2022-08-17T05:03:34.344Z,14.52
2022-08-17T05:06:01.322Z,17.98
2022-08-17T05:08:28.172Z,14.50
2022-08-17T05:10:55.115Z,13.85
2022-08-17T05:13:29.764Z,14.77
2022-08-17T05:16:01.682Z,13.27
2022-08-17T05:18:29.776Z,14.15
2022-08-17T05:20:57.402Z,14.43
2022-08-17T05:23:27.090Z,13.77
2022-08-17T05:26:02.562Z,13.63
2022-08-17T05:28:30.092Z,14.02
2022-08-17T05:30:59.791Z,12.75
2022-08-17T05:33:29.488Z,14.50
2022-08-17T05:35:58.744Z,13.27
2022-08-17T05:38:28.231Z,13.88
2022-08-17T05:40:55.932Z,12.45
2022-08-17T05:43:29.028Z,12.80
2022-08-17T05:46:13.660Z,13.77
2022-08-17T05:48:46.926Z,11.98
2022-08-17T05:51:34.969Z,12.63
2022-08-17T05:54:49.103Z,12.68
2022-08-17T05:57:34.706Z,12.95
2022-08-17T06:00:42.056Z,14.50
2022-08-17T06:03:24.224Z,12.98
2022-08-17T06:06:18.471Z,13.13
2022-08-17T06:09:05.088Z,11.88
2022-08-17T06:11:45.676Z,11.98
2022-08-17T06:17:56.430Z,11.35
2022-08-17T06:20:25.344Z,10.43
2022-08-17T06:26:43.383Z,9.45
2022-08-17T06:33:02.998Z,7.20
2022-08-17T06:35:37.807Z,6.88
2022-08-17T06:42:09.557Z,6.75
2022-08-17T06:45:15.143Z,6.70
2022-08-17T06:47:48.209Z,7.03
2022-08-17T06:50:20.582Z,6.50
2022-08-17T06:53:04.488Z,7.75
2022-08-17T06:55:44.258Z,6.53
2022-08-17T06:58:16.309Z,6.55
2022-08-17T07:00:47.545Z,6.60
2022-08-17T07:03:49.911Z,6.57
2022-08-17T07:06:23.273Z,6.80
2022-08-17T07:09:01.164Z,6.97
2022-08-17T07:11:54.304Z,6.88
2022-08-17T07:14:31.951Z,6.28
2022-08-17T07:17:03.074Z,6.88
2022-08-17T07:19:33.700Z,6.13
2022-08-17T07:22:05.633Z,5.80
2022-08-17T07:24:58.437Z,5.53
2022-08-17T07:27:32.499Z,5.85
2022-08-17T07:30:10.340Z,5.05
2022-08-17T07:32:53.463Z,4.68
2022-08-17T09:07:43.008Z,5.45
2022-08-17T09:10:26.846Z,6.28
2022-08-17T09:12:59.227Z,5.95
2022-08-17T09:15:34.992Z,5.70
2022-08-17T09:18:59.820Z,5.57
2022-08-17T09:21:08.221Z,5.65
2022-08-17T09:23:35.052Z,5.60
2022-08-17T09:26:22.977Z,5.68
2022-08-17T09:29:00.376Z,5.85
2022-08-17T09:31:55.782Z,5.13
2022-08-17T09:34:33.085Z,5.63
2022-08-17T09:37:18.740Z,6.00
2022-08-17T09:40:09.730Z,5.78
2022-08-17T09:42:52.696Z,5.78
2022-08-17T09:45:46.555Z,5.40
2022-08-17T09:48:19.238Z,6.10
2022-08-17T09:51:05.049Z,13.88
2022-08-17T09:53:38.195Z,14.98
2022-08-17T09:57:11.537Z,8.18
2022-08-17T09:59:56.805Z,10.45
2022-08-17T10:02:32.868Z,5.75
2022-08-17T10:05:06.779Z,6.03
2022-08-17T10:08:09.363Z,6.25
2022-08-17T10:11:05.605Z,6.53
2022-08-17T10:13:59.615Z,6.40
2022-08-17T10:16:44.036Z,6.80
2022-08-17T10:19:28.452Z,5.80
2022-08-17T10:22:34.765Z,6.95
2022-08-17T10:25:33.471Z,6.70
2022-08-17T10:28:19.883Z,6.10
2022-08-17T10:31:10.511Z,6.72
2022-08-17T10:34:04.408Z,6.45
2022-08-17T10:36:52.552Z,6.97
2022-08-17T10:39:52.001Z,5.72
2022-08-17T10:42:32.566Z,6.05
2022-08-17T10:45:15.555Z,5.90
2022-08-17T10:48:06.167Z,6.03
2022-08-17T10:50:46.391Z,6.10
2022-08-17T10:53:31.884Z,6.45
2022-08-17T10:56:14.090Z,6.57
2022-08-17T10:58:54.463Z,6.63
2022-08-17T11:01:45.479Z,7.13
2022-08-17T11:04:18.535Z,7.38
2022-08-17T11:06:53.904Z,6.57
2022-08-17T11:09:32.863Z,6.32
2022-08-17T11:12:15.645Z,6.43
2022-08-17T11:15:20.000Z,6.75
2022-08-17T11:18:21.131Z,7.07
2022-08-17T11:21:32.274Z,6.20
2022-08-17T11:24:20.736Z,6.70
2022-08-17T11:27:27.926Z,6.65
2022-08-17T11:30:33.484Z,6.95
2022-08-17T11:33:20.729Z,6.50
2022-08-17T11:35:54.465Z,6.65
2022-08-17T11:38:43.974Z,7.45
2022-08-17T11:41:18.093Z,6.85
2022-08-17T11:44:01.970Z,7.40
2022-08-17T11:47:12.151Z,6.45
2022-08-17T11:50:00.207Z,6.70
2022-08-17T11:52:46.919Z,6.60
2022-08-17T11:55:35.662Z,6.25
2022-08-17T11:58:29.291Z,6.22
2022-08-17T12:01:07.285Z,5.80
2022-08-17T12:03:34.152Z,6.35
2022-08-17T12:06:07.067Z,6.00
2022-08-17T12:08:41.844Z,6.10
2022-08-17T12:11:58.789Z,6.63
2022-08-17T12:14:40.130Z,6.45
2022-08-17T12:17:20.864Z,7.27
2022-08-17T12:20:15.198Z,6.57
2022-08-17T12:22:57.685Z,6.28
2022-08-17T12:25:37.729Z,6.38
2022-08-17T12:28:20.155Z,7.07
2022-08-17T12:30:52.563Z,6.88
2022-08-17T12:33:28.395Z,6.38
2022-08-17T12:36:08.818Z,7.25
2022-08-17T12:38:38.242Z,6.47
2022-08-17T12:41:27.381Z,7.22
2022-08-17T12:44:03.667Z,6.50
2022-08-17T12:46:46.708Z,7.43
2022-08-17T12:49:26.550Z,6.97
2022-08-17T12:52:01.385Z,7.28
2022-08-17T12:54:35.478Z,6.78
2022-08-17T12:57:12.741Z,6.63
2022-08-17T12:59:47.422Z,6.78
2022-08-17T13:02:43.269Z,6.78
2022-08-17T13:05:25.864Z,6.60
2022-08-17T13:07:53.832Z,5.88
2022-08-17T13:10:33.097Z,6.63
2022-08-17T13:13:06.205Z,5.85
2022-08-17T13:15:43.255Z,5.90
2022-08-17T13:18:42.744Z,5.97
2022-08-17T13:21:27.399Z,6.65
2022-08-17T13:24:20.073Z,6.30
2022-08-17T13:27:01.966Z,7.07
2022-08-17T13:29:41.099Z,6.03
2022-08-17T13:32:14.336Z,5.55
2022-08-17T13:35:12.132Z,6.35
2022-08-17T13:37:38.246Z,5.05
2022-08-17T13:40:10.588Z,5.50
2022-08-17T13:42:51.780Z,6.28
2022-08-17T13:45:36.460Z,5.90
2022-08-17T13:48:24.969Z,6.18
2022-08-17T13:50:54.865Z,5.78
2022-08-17T13:53:31.054Z,6.28
2022-08-17T13:56:37.913Z,6.55
2022-08-17T13:59:06.118Z,6.45
2022-08-17T14:01:38.449Z,6.93
2022-08-17T14:04:12.658Z,6.63
2022-08-17T14:07:08.769Z,6.45
2022-08-17T14:09:39.862Z,7.53
2022-08-17T14:12:11.622Z,7.40
2022-08-17T14:14:39.439Z,6.75
2022-08-17T14:17:07.853Z,6.82
2022-08-17T14:19:36.950Z,7.00
2022-08-17T14:22:06.419Z,6.28
2022-08-17T14:24:38.997Z,6.65
2022-08-17T14:27:09.552Z,8.07
2022-08-17T14:29:36.945Z,7.90
2022-08-17T14:32:21.221Z,6.55
2022-08-17T14:34:49.756Z,6.65
2022-08-17T14:37:21.337Z,6.22
2022-08-17T14:39:48.266Z,5.85
2022-08-17T14:42:15.653Z,6.38
2022-08-17T14:44:42.633Z,6.25
2022-08-17T14:47:15.084Z,5.75
2022-08-17T14:49:42.353Z,5.97
2022-08-17T14:52:12.245Z,5.95
2022-08-17T14:54:42.487Z,6.00
2022-08-17T14:57:24.492Z,5.57
2022-08-17T15:00:00.037Z,5.57
2022-08-17T15:02:29.847Z,6.15
2022-08-17T15:05:02.614Z,5.95
2022-08-17T15:07:30.914Z,6.10
2022-08-17T15:10:00.475Z,6.05
2022-08-17T15:12:32.713Z,6.25
2022-08-17T15:15:00.936Z,6.18
2022-08-17T15:17:45.021Z,6.03
2022-08-17T15:20:16.241Z,5.20
2022-08-17T15:22:44.325Z,5.88
2022-08-17T15:25:12.905Z,5.28
2022-08-17T15:27:40.511Z,5.85
2022-08-17T15:30:10.165Z,6.50
2022-08-17T15:32:39.472Z,5.40
2022-08-17T15:35:11.504Z,5.97
2022-08-17T15:37:39.036Z,6.07
2022-08-17T15:40:08.201Z,5.60
2022-08-17T15:42:35.622Z,6.18
2022-08-17T15:45:25.204Z,5.78
2022-08-17T15:47:53.243Z,6.15
2022-08-17T15:50:20.272Z,6.10
2022-08-17T15:52:47.670Z,5.63
2022-08-17T15:55:15.174Z,6.30
2022-08-17T15:57:42.202Z,6.30
2022-08-17T16:00:09.900Z,6.63
2022-08-17T16:03:46.253Z,6.82
2022-08-17T16:05:27.348Z,6.53
2022-08-17T16:07:55.962Z,6.82
2022-08-17T16:10:33.973Z,7.30
2022-08-17T16:13:03.056Z,6.93
2022-08-17T16:15:31.682Z,7.22
2022-08-17T16:17:58.846Z,7.93
2022-08-17T16:20:25.949Z,7.35
2022-08-17T16:22:54.526Z,8.15
2022-08-17T16:25:49.714Z,8.60
2022-08-17T16:28:15.971Z,8.75
2022-08-17T16:30:43.427Z,8.57
2022-08-17T16:33:15.252Z,8.82
2022-08-17T16:35:43.167Z,9.55
2022-08-17T16:38:10.991Z,10.93
2022-08-17T16:40:38.113Z,11.65
2022-08-17T16:43:10.685Z,11.60
2022-08-17T16:45:40.528Z,11.38
2022-08-17T16:48:08.911Z,12.13
2022-08-17T16:50:36.525Z,11.60
2022-08-17T16:53:10.870Z,12.23
2022-08-17T16:55:38.665Z,12.95
2022-08-17T16:58:06.372Z,13.65
2022-08-17T17:00:34.091Z,13.57
2022-08-17T17:03:19.033Z,13.25
2022-08-17T17:05:59.249Z,13.73
2022-08-17T17:09:00.580Z,13.10
2022-08-17T17:11:35.570Z,13.98
2022-08-17T17:14:06.769Z,13.57
2022-08-17T17:16:47.721Z,13.63
2022-08-17T17:19:35.174Z,14.02
2022-08-17T17:22:19.455Z,13.77
2022-08-17T17:24:58.425Z,14.73
2022-08-17T17:27:47.391Z,11.63
2022-08-17T17:30:24.263Z,12.35
2022-08-17T17:33:04.661Z,13.40
2022-08-17T17:36:00.215Z,13.27
2022-08-17T17:38:34.345Z,13.60
2022-08-17T17:41:05.592Z,11.80
2022-08-17T17:43:39.659Z,13.35
2022-08-17T17:46:29.115Z,12.50
2022-08-17T17:49:00.190Z,12.57
2022-08-17T17:52:06.745Z,13.68
2022-08-17T17:55:02.633Z,12.18
2022-08-17T17:57:29.499Z,12.68
2022-08-17T18:00:23.675Z,13.18
2022-08-17T18:03:09.557Z,13.50
2022-08-17T18:05:45.581Z,15.23
2022-08-17T18:08:43.403Z,13.77
2022-08-17T18:11:25.143Z,14.95
2022-08-17T18:13:59.724Z,17.02
2022-08-17T18:16:29.918Z,15.15
2022-08-17T18:18:59.919Z,16.58
2022-08-17T18:21:38.010Z,14.82
2022-08-17T18:24:08.109Z,18.60
2022-08-17T18:26:47.044Z,16.98
2022-08-17T18:29:32.101Z,17.52
2022-08-17T18:32:36.069Z,16.92
2022-08-17T18:35:09.148Z,21.23
2022-08-17T18:37:43.779Z,20.87
2022-08-17T18:40:17.011Z,22.65
2022-08-17T18:42:46.901Z,22.35
2022-08-17T18:45:30.184Z,21.10
2022-08-17T18:47:57.086Z,22.65
2022-08-17T18:50:27.889Z,20.45
2022-08-17T18:53:14.821Z,20.33
2022-08-17T18:55:41.801Z,21.85
2022-08-17T18:58:21.350Z,24.38
2022-08-17T19:00:49.959Z,24.90
2022-08-17T19:03:18.021Z,25.95
2022-08-17T19:05:56.690Z,26.27
2022-08-17T19:08:29.408Z,28.25
2022-08-17T19:11:01.422Z,25.77
2022-08-17T19:13:37.061Z,26.08
2022-08-17T19:16:13.908Z,26.67
2022-08-17T19:18:45.059Z,25.00
2022-08-17T19:21:34.611Z,23.80
2022-08-17T19:24:20.592Z,22.88
2022-08-17T19:27:00.892Z,22.95
2022-08-17T19:29:50.787Z,21.85
2022-08-17T19:32:21.667Z,22.42
2022-08-17T19:34:49.286Z,21.90
2022-08-17T19:37:37.921Z,21.90
2022-08-17T19:40:52.942Z,22.75
2022-08-17T19:44:17.078Z,22.42
2022-08-17T19:47:10.462Z,23.60
2022-08-17T19:50:08.964Z,24.63
2022-08-17T19:52:58.104Z,23.15
2022-08-17T19:55:32.116Z,26.08
2022-08-17T20:00:34.465Z,25.25
2022-08-17T20:03:22.269Z,27.35
2022-08-17T20:06:11.958Z,26.25
2022-08-17T20:08:47.124Z,26.27
2022-08-17T20:11:37.960Z,27.20
2022-08-17T20:14:15.154Z,27.70
2022-08-17T20:16:42.169Z,25.77
2022-08-17T20:19:23.484Z,26.30
2022-08-17T20:22:00.054Z,28.70
2022-08-17T20:24:44.064Z,28.05
2022-08-17T20:27:20.321Z,28.67
2022-08-17T20:30:12.278Z,27.90
2022-08-17T20:32:49.208Z,30.33
2022-08-17T20:35:36.698Z,27.85
2022-08-17T20:38:11.109Z,30.05
2022-08-17T20:41:00.444Z,32.67
2022-08-17T20:43:33.059Z,35.08
2022-08-17T20:46:24.377Z,35.65
2022-08-17T20:48:55.526Z,35.00
2022-08-17T20:51:39.601Z,33.55
2022-08-17T20:54:18.571Z,32.40
2022-08-17T20:56:46.565Z,32.88
2022-08-17T20:59:25.683Z,32.08
2022-08-17T21:02:18.829Z,32.83
2022-08-17T21:05:00.830Z,32.85
2022-08-17T21:07:45.068Z,33.78
2022-08-17T21:10:14.056Z,32.20
2022-08-17T21:12:48.067Z,31.80
2022-08-17T21:15:28.644Z,33.60
2022-08-17T21:18:14.237Z,34.30
2022-08-17T21:21:18.376Z,34.25
2022-08-17T21:24:26.713Z,31.60
2022-08-17T21:27:32.622Z,30.10
2022-08-17T21:30:05.640Z,31.17
2022-08-17T21:35:07.649Z,32.35
2022-08-17T21:37:46.444Z,29.67
2022-08-17T21:40:13.427Z,30.58
2022-08-17T21:42:47.938Z,28.40
2022-08-17T21:45:43.015Z,29.13
2022-08-17T21:48:11.064Z,38.90
2022-08-17T21:50:40.755Z,34.95
2022-08-17T21:53:11.685Z,33.53
2022-08-17T21:55:38.873Z,35.35
2022-08-17T21:58:19.273Z,36.13
2022-08-17T22:00:46.251Z,35.03
2022-08-17T22:03:24.724Z,33.80
2022-08-17T22:05:51.790Z,30.77
2022-08-17T22:08:24.593Z,30.48
2022-08-17T22:11:01.293Z,30.65
2022-08-17T22:13:29.591Z,31.02
2022-08-17T22:16:15.369Z,30.83
2022-08-17T22:18:57.749Z,30.60
2022-08-17T22:21:25.451Z,28.20
2022-08-17T22:24:06.019Z,28.88
2022-08-17T22:26:59.559Z,26.02
2022-08-17T22:29:47.901Z,28.83
2022-08-17T22:32:51.461Z,28.33
2022-08-17T22:35:27.304Z,27.30
2022-08-17T22:37:54.700Z,27.85
2022-08-17T22:40:39.435Z,28.10
2022-08-17T22:43:12.002Z,26.95
2022-08-17T22:45:51.522Z,29.38
2022-08-17T22:48:27.258Z,28.35
2022-08-17T22:51:12.605Z,28.27
2022-08-17T22:54:09.041Z,27.73
2022-08-17T22:56:55.704Z,27.30
2022-08-17T22:59:58.318Z,26.90
2022-08-17T23:02:29.749Z,28.23
2022-08-17T23:05:13.081Z,27.83
2022-08-17T23:07:43.283Z,27.75
2022-08-17T23:10:11.351Z,26.90
2022-08-17T23:12:39.791Z,27.77
2022-08-17T23:15:15.077Z,29.15
2022-08-17T23:17:42.568Z,30.58
2022-08-17T23:20:14.305Z,30.63
2022-08-17T23:22:52.067Z,28.83
2022-08-17T23:25:28.108Z,28.90
2022-08-17T23:27:57.489Z,28.38
2022-08-17T23:30:25.750Z,29.70
2022-08-17T23:32:54.440Z,30.23
2022-08-17T23:35:40.489Z,28.98
2022-08-17T23:38:12.373Z,27.52
2022-08-17T23:40:40.535Z,29.63
2022-08-17T23:43:24.021Z,28.65
2022-08-17T23:45:57.645Z,31.77
2022-08-17T23:48:28.632Z,30.73
2022-08-17T23:51:09.275Z,30.05
2022-08-17T23:53:39.151Z,30.98
2022-08-17T23:56:10.331Z,29.15
2022-08-17T23:58:39.976Z,28.45
